Time;durP1;ratioP1;P1;durP2;ratioP2;P2;SDS_P1;SDS_P2;PMS_P1;PMS_P2;Temp;Humidity;BMP_temperature;BMP_pressure;BME280_temperature;BME280_humidity;BME280_pressure;Samples;Min_cycle;Max_cycle;Signal;HPM_P1;HPM_P2
2021/04/28 00:00:00;;;;;;;7.03;4.22;;;;;;;;;;5010807;28;20056;-66
2021/04/28 00:02:26;;;;;;;4.63;3.72;;;;;;;;;;5010696;28;20041;-66
2021/04/28 00:04:52;;;;;;;7.10;3.67;;;;;;;;;;4993091;28;20042;-66
2021/04/28 00:07:18;;;;;;;7.22;3.22;;;;;;;;;;5011083;28;20038;-66
2021/04/28 00:09:44;;;;;;;11.45;3.45;;;;;;;;;;5011018;28;20069;-66
2021/04/28 00:12:11;;;;;;;5.20;3.35;;;;;;;;;;4992982;28;20045;-66
2021/04/28 00:14:37;;;;;;;7.10;3.47;;;;;;;;;;5009665;28;20038;-66
2021/04/28 00:17:03;;;;;;;7.78;3.55;;;;;;;;;;5011108;28;20056;-66
2021/04/28 00:19:31;;;;;;;7.82;3.40;;;;;;;;;;5009466;28;20088;-66
2021/04/28 00:21:58;;;;;;;5.57;3.25;;;;;;;;;;4993830;28;20038;-66
2021/04/28 00:24:24;;;;;;;6.68;3.42;;;;;;;;;;5010548;28;20116;-66
2021/04/28 00:26:50;;;;;;;7.15;3.30;;;;;;;;;;5011986;28;20066;-66
2021/04/28 00:29:17;;;;;;;6.47;3.50;;;;;;;;;;5008996;28;20449;-66
2021/04/28 00:31:43;;;;;;;5.95;3.55;;;;;;;;;;5010662;28;20132;-66
2021/04/28 00:34:09;;;;;;;7.53;3.55;;;;;;;;;;4991764;28;20050;-66
2021/04/28 00:36:36;;;;;;;5.35;3.15;;;;;;;;;;5010184;28;20042;-66
2021/04/28 00:39:02;;;;;;;6.30;3.50;;;;;;;;;;4997911;28;20064;-66
2021/04/28 00:41:29;;;;;;;7.03;3.10;;;;;;;;;;5009047;28;20034;-66
2021/04/28 00:43:55;;;;;;;7.20;3.08;;;;;;;;;;5009893;28;20080;-66
2021/04/28 00:46:22;;;;;;;6.32;3.20;;;;;;;;;;5009466;28;20100;-66
2021/04/28 00:48:48;;;;;;;6.88;3.00;;;;;;;;;;5009229;28;20053;-66
2021/04/28 00:51:14;;;;;;;8.40;3.05;;;;;;;;;;5010480;28;20513;-66
2021/04/28 00:53:41;;;;;;;4.75;2.83;;;;;;;;;;4992866;28;20053;-66
2021/04/28 00:56:09;;;;;;;3.53;3.08;;;;;;;;;;5011803;28;20065;-66
2021/04/28 00:58:35;;;;;;;6.13;3.13;;;;;;;;;;5009469;28;20046;-66
2021/04/28 01:01:01;;;;;;;4.20;2.72;;;;;;;;;;5009581;28;20380;-66
2021/04/28 01:03:28;;;;;;;4.05;2.70;;;;;;;;;;4991796;28;20053;-66
2021/04/28 01:06:00;;;;;;;3.95;3.13;;;;;;;;;;5010546;28;20045;-66
2021/04/28 01:08:26;;;;;;;4.38;2.65;;;;;;;;;;4991721;28;20442;-66
2021/04/28 01:10:53;;;;;;;7.75;2.90;;;;;;;;;;5010283;28;20046;-67
2021/04/28 01:13:20;;;;;;;4.70;3.13;;;;;;;;;;5010340;28;20440;-67
2021/04/28 01:15:47;;;;;;;8.20;2.65;;;;;;;;;;5009801;28;20046;-67
2021/04/28 01:18:15;;;;;;;6.07;2.55;;;;;;;;;;5010303;28;20038;-67
2021/04/28 01:20:41;;;;;;;5.60;2.65;;;;;;;;;;4991130;28;20038;-67
2021/04/28 01:23:08;;;;;;;3.95;2.67;;;;;;;;;;5010173;28;20042;-68
2021/04/28 01:25:35;;;;;;;4.70;2.90;;;;;;;;;;5009147;28;20103;-67
2021/04/28 01:28:01;;;;;;;8.02;2.60;;;;;;;;;;5009595;28;20113;-67
2021/04/28 01:30:30;;;;;;;3.10;2.33;;;;;;;;;;5008522;28;20045;-67
2021/04/28 01:32:57;;;;;;;6.63;2.95;;;;;;;;;;5010681;28;20058;-67
2021/04/28 01:35:25;;;;;;;8.48;2.33;;;;;;;;;;5010242;28;20038;-68
2021/04/28 01:37:51;;;;;;;3.55;2.40;;;;;;;;;;4995832;28;20038;-67
2021/04/28 01:40:19;;;;;;;4.05;2.63;;;;;;;;;;4995707;28;20413;-67
2021/04/28 01:42:47;;;;;;;3.97;2.63;;;;;;;;;;5013157;28;20042;-65
2021/04/28 01:45:13;;;;;;;7.22;2.88;;;;;;;;;;5013858;28;20045;-67
2021/04/28 01:47:40;;;;;;;4.53;2.60;;;;;;;;;;4994855;28;20049;-66
2021/04/28 01:50:08;;;;;;;3.90;2.67;;;;;;;;;;5013472;28;20042;-66
2021/04/28 01:52:35;;;;;;;5.25;2.67;;;;;;;;;;5013349;28;20111;-67
2021/04/28 01:55:01;;;;;;;5.97;2.63;;;;;;;;;;5012407;28;20058;-66
2021/04/28 01:57:27;;;;;;;5.40;3.15;;;;;;;;;;4977150;28;20033;-67
2021/04/28 01:59:54;;;;;;;5.15;2.72;;;;;;;;;;5012913;28;20041;-66
2021/04/28 02:02:20;;;;;;;5.43;2.58;;;;;;;;;;5013864;28;20041;-67
2021/04/28 02:04:46;;;;;;;4.60;2.60;;;;;;;;;;5012285;28;20358;-66
2021/04/28 02:07:14;;;;;;;4.75;2.40;;;;;;;;;;5013503;28;20048;-66
2021/04/28 02:09:40;;;;;;;7.65;2.70;;;;;;;;;;5012244;28;20056;-66
2021/04/28 02:12:06;;;;;;;5.63;2.70;;;;;;;;;;4983565;28;20042;-66
2021/04/28 02:14:33;;;;;;;4.28;2.60;;;;;;;;;;4994251;28;20050;-66
2021/04/28 02:17:00;;;;;;;8.02;2.45;;;;;;;;;;5012289;28;20497;-66
2021/04/28 02:19:27;;;;;;;5.75;2.80;;;;;;;;;;5013177;28;20085;-66
2021/04/28 02:21:53;;;;;;;4.15;2.25;;;;;;;;;;5013482;28;20038;-66
2021/04/28 02:24:20;;;;;;;3.38;2.67;;;;;;;;;;4996386;28;20053;-66
2021/04/28 02:26:48;;;;;;;5.10;2.47;;;;;;;;;;5012291;28;20049;-66
2021/04/28 02:29:14;;;;;;;4.13;2.83;;;;;;;;;;5012968;28;20037;-66
2021/04/28 02:31:40;;;;;;;4.60;2.67;;;;;;;;;;5011369;28;20056;-66
2021/04/28 02:34:07;;;;;;;4.70;2.10;;;;;;;;;;5012930;28;20046;-66
2021/04/28 02:36:35;;;;;;;4.85;2.38;;;;;;;;;;5011118;28;20042;-66
2021/04/28 02:39:21;;;;;;;5.80;2.38;;;;;;;;;;5012787;28;20034;-66
2021/04/28 02:41:50;;;;;;;5.50;2.53;;;;;;;;;;5009929;28;20113;-66
2021/04/28 02:44:18;;;;;;;6.88;2.60;;;;;;;;;;5011249;28;20038;-66
2021/04/28 02:46:45;;;;;;;2.90;2.20;;;;;;;;;;4993665;28;20063;-66
2021/04/28 02:49:11;;;;;;;2.80;2.00;;;;;;;;;;5012070;28;20136;-66
2021/04/28 02:51:39;;;;;;;2.55;2.13;;;;;;;;;;5012029;28;20045;-66
2021/04/28 02:54:06;;;;;;;5.10;2.60;;;;;;;;;;5013314;28;20046;-66
2021/04/28 02:56:32;;;;;;;6.03;2.58;;;;;;;;;;5011822;28;20392;-66
2021/04/28 02:58:59;;;;;;;5.68;2.55;;;;;;;;;;5000906;28;20433;-66
2021/04/28 03:01:26;;;;;;;3.03;2.30;;;;;;;;;;5002841;28;20038;-66
2021/04/28 03:03:53;;;;;;;4.78;2.65;;;;;;;;;;5011070;28;20409;-66
2021/04/28 03:06:20;;;;;;;3.67;2.25;;;;;;;;;;5012215;28;20042;-66
2021/04/28 03:08:46;;;;;;;7.25;2.72;;;;;;;;;;5011346;28;20053;-66
2021/04/28 03:11:15;;;;;;;3.90;2.47;;;;;;;;;;4994124;28;20077;-66
2021/04/28 03:13:43;;;;;;;4.82;2.65;;;;;;;;;;5011121;28;20041;-66
2021/04/28 03:16:10;;;;;;;4.80;2.40;;;;;;;;;;4994287;28;20050;-66
2021/04/28 03:18:39;;;;;;;5.85;2.80;;;;;;;;;;5011820;28;20104;-66
2021/04/28 03:21:09;;;;;;;7.75;3.28;;;;;;;;;;4993667;28;20438;-67
2021/04/28 03:23:36;;;;;;;7.47;3.50;;;;;;;;;;5012468;28;20034;-66
2021/04/28 03:26:02;;;;;;;5.10;2.70;;;;;;;;;;5012771;28;20135;-66
2021/04/28 03:28:28;;;;;;;12.68;2.78;;;;;;;;;;4993209;28;20091;-66
2021/04/28 03:30:54;;;;;;;6.93;2.65;;;;;;;;;;5010980;28;20062;-67
2021/04/28 03:33:21;;;;;;;4.75;2.55;;;;;;;;;;4993076;28;20167;-66
2021/04/28 03:35:47;;;;;;;6.13;3.00;;;;;;;;;;5009674;28;20041;-67
2021/04/28 03:38:13;;;;;;;3.28;2.80;;;;;;;;;;5010983;28;20399;-67
2021/04/28 03:40:39;;;;;;;3.80;2.70;;;;;;;;;;4993577;28;20129;-67
2021/04/28 03:43:05;;;;;;;7.55;2.92;;;;;;;;;;5011291;28;20098;-65
2021/04/28 03:45:31;;;;;;;6.60;2.63;;;;;;;;;;5010208;28;20092;-65
2021/04/28 03:47:58;;;;;;;4.20;2.92;;;;;;;;;;5009287;28;20493;-65
2021/04/28 03:50:24;;;;;;;9.77;3.35;;;;;;;;;;5011295;28;20481;-66
2021/04/28 03:52:50;;;;;;;5.60;2.80;;;;;;;;;;5011344;28;20045;-66
2021/04/28 03:55:16;;;;;;;5.65;2.67;;;;;;;;;;4994643;28;20050;-66
2021/04/28 03:57:42;;;;;;;5.38;2.95;;;;;;;;;;5009695;28;20038;-66
2021/04/28 04:00:09;;;;;;;3.97;2.50;;;;;;;;;;5010333;28;20129;-66
2021/04/28 04:02:35;;;;;;;6.75;3.22;;;;;;;;;;4992271;28;20053;-66
2021/04/28 04:05:02;;;;;;;6.75;2.88;;;;;;;;;;5010138;28;20126;-66
2021/04/28 04:07:28;;;;;;;6.30;3.05;;;;;;;;;;5010640;28;20077;-66
2021/04/28 04:09:54;;;;;;;6.03;2.92;;;;;;;;;;5010500;28;20069;-66
2021/04/28 04:12:20;;;;;;;6.57;2.80;;;;;;;;;;5010865;28;20477;-66
2021/04/28 04:14:47;;;;;;;4.68;2.42;;;;;;;;;;5010250;28;20088;-66
2021/04/28 04:17:13;;;;;;;5.68;2.75;;;;;;;;;;5000099;28;20046;-66
2021/04/28 04:19:39;;;;;;;5.88;2.58;;;;;;;;;;5009529;28;20078;-66
2021/04/28 04:22:05;;;;;;;7.00;3.17;;;;;;;;;;5011071;28;20038;-67
2021/04/28 04:24:32;;;;;;;3.60;2.50;;;;;;;;;;5011728;28;20488;-67
2021/04/28 04:26:58;;;;;;;5.80;2.88;;;;;;;;;;5010513;28;20125;-67
2021/04/28 04:29:25;;;;;;;7.03;2.95;;;;;;;;;;5010161;28;20073;-67
2021/04/28 04:31:51;;;;;;;6.07;3.78;;;;;;;;;;4991334;28;20053;-67
2021/04/28 04:34:17;;;;;;;4.63;2.50;;;;;;;;;;5010099;28;20042;-66
2021/04/28 04:36:43;;;;;;;3.97;2.80;;;;;;;;;;5013336;28;20125;-66
2021/04/28 04:39:09;;;;;;;6.07;2.75;;;;;;;;;;4994897;28;20056;-67
2021/04/28 04:41:35;;;;;;;4.18;3.13;;;;;;;;;;5011070;28;20041;-66
2021/04/28 04:44:01;;;;;;;7.57;2.90;;;;;;;;;;5010256;28;20049;-67
2021/04/28 04:46:28;;;;;;;11.73;2.92;;;;;;;;;;4992325;28;20077;-67
2021/04/28 04:48:54;;;;;;;3.65;2.63;;;;;;;;;;5011622;28;20037;-67
2021/04/28 04:51:20;;;;;;;5.63;3.10;;;;;;;;;;4993345;28;20095;-68
2021/04/28 04:53:46;;;;;;;7.70;2.42;;;;;;;;;;5011035;28;20607;-65
2021/04/28 04:56:12;;;;;;;4.90;2.75;;;;;;;;;;5010490;28;20050;-65
2021/04/28 04:58:38;;;;;;;4.53;2.92;;;;;;;;;;4996140;28;20046;-66
2021/04/28 05:01:05;;;;;;;6.20;2.83;;;;;;;;;;4994350;28;20131;-65
2021/04/28 05:03:31;;;;;;;5.47;3.30;;;;;;;;;;5013444;28;20546;-67
2021/04/28 05:05:57;;;;;;;7.72;3.22;;;;;;;;;;5010910;28;20056;-67
2021/04/28 05:08:23;;;;;;;4.53;3.08;;;;;;;;;;4990393;28;20049;-67
2021/04/28 05:10:49;;;;;;;5.75;2.97;;;;;;;;;;5010792;28;20057;-67
2021/04/28 05:13:16;;;;;;;4.80;3.05;;;;;;;;;;5014403;28;20073;-67
2021/04/28 05:15:42;;;;;;;5.43;2.63;;;;;;;;;;5017335;28;20125;-66
2021/04/28 05:18:08;;;;;;;4.88;2.80;;;;;;;;;;5013195;28;20062;-66
2021/04/28 05:20:34;;;;;;;7.10;2.97;;;;;;;;;;5022339;28;20400;-66
2021/04/28 05:23:00;;;;;;;4.60;2.80;;;;;;;;;;5022419;28;20041;-66
2021/04/28 05:25:27;;;;;;;3.72;2.50;;;;;;;;;;5016076;28;20033;-66
2021/04/28 05:27:53;;;;;;;7.60;2.85;;;;;;;;;;5007909;28;20138;-66
2021/04/28 05:30:20;;;;;;;7.70;3.30;;;;;;;;;;5021780;28;20100;-66
2021/04/28 05:32:47;;;;;;;6.53;3.40;;;;;;;;;;5017669;28;20438;-66
2021/04/28 05:35:13;;;;;;;6.45;3.28;;;;;;;;;;5020060;28;20430;-66
2021/04/28 05:37:39;;;;;;;4.38;3.00;;;;;;;;;;5022828;28;20439;-67
2021/04/28 05:40:06;;;;;;;5.97;3.15;;;;;;;;;;5024845;28;20447;-67
2021/04/28 05:42:33;;;;;;;6.25;3.08;;;;;;;;;;4996118;28;20424;-67
2021/04/28 05:44:59;;;;;;;6.55;3.13;;;;;;;;;;4979051;28;20444;-67
2021/04/28 05:47:25;;;;;;;4.55;3.13;;;;;;;;;;5012359;28;20436;-67
2021/04/28 05:49:52;;;;;;;5.15;3.35;;;;;;;;;;5007875;28;20434;-67
2021/04/28 05:52:20;;;;;;;5.33;3.17;;;;;;;;;;5010864;28;20444;-67
2021/04/28 05:54:46;;;;;;;8.70;3.50;;;;;;;;;;5004256;28;20928;-67
2021/04/28 05:57:12;;;;;;;7.38;3.10;;;;;;;;;;4994540;28;20408;-67
2021/04/28 05:59:38;;;;;;;6.68;3.28;;;;;;;;;;5011395;28;20907;-67
2021/04/28 06:02:05;;;;;;;6.82;3.80;;;;;;;;;;5007672;28;20953;-67
2021/04/28 06:04:31;;;;;;;6.43;3.28;;;;;;;;;;5014611;28;20436;-67
2021/04/28 06:06:57;;;;;;;5.82;3.35;;;;;;;;;;5011835;28;20527;-67
2021/04/28 06:09:23;;;;;;;4.65;2.90;;;;;;;;;;5010630;28;20992;-67
2021/04/28 06:11:49;;;;;;;4.07;3.15;;;;;;;;;;5001318;28;20959;-67
2021/04/28 06:14:15;;;;;;;4.30;3.00;;;;;;;;;;5008371;28;20091;-68
2021/04/28 06:16:41;;;;;;;;;;;;;;;;;;5016781;28;20374;-68
2021/04/28 06:19:08;;;;;;;;;;;;;;;;;;5005369;28;19929;-67
2021/04/28 06:21:34;;;;;;;;;;;;;;;;;;5013130;28;19969;-68
2021/04/28 06:24:03;;;;;;;;;;;;;;;;;;5008942;28;19926;-67
2021/04/28 06:26:30;;;;;;;;;;;;;;;;;;5013531;28;19925;-68
2021/04/28 06:28:56;;;;;;;;;;;;;;;;;;5012400;28;19972;-68
2021/04/28 06:31:22;;;;;;;;;;;;;;;;;;5013005;28;19926;-67
2021/04/28 06:33:48;;;;;;;;;;;;;;;;;;5017103;28;20012;-67
2021/04/28 06:36:14;;;;;;;6.13;3.35;;;;;;;;;;5008758;28;20105;-68
2021/04/28 06:38:40;;;;;;;4.40;3.42;;;;;;;;;;5011198;28;20029;-68
2021/04/28 06:41:07;;;;;;;5.28;3.00;;;;;;;;;;5012126;28;20042;-70
2021/04/28 06:43:33;;;;;;;7.55;3.33;;;;;;;;;;5010626;28;20046;-68
2021/04/28 06:45:59;;;;;;;7.15;3.22;;;;;;;;;;5005912;28;20613;-68
2021/04/28 06:48:25;;;;;;;5.55;3.30;;;;;;;;;;5016775;28;20056;-67
2021/04/28 06:50:52;;;;;;;4.97;3.25;;;;;;;;;;4995522;28;20050;-68
2021/04/28 06:53:18;;;;;;;5.88;3.83;;;;;;;;;;5010970;28;20041;-68
2021/04/28 06:55:44;;;;;;;3.92;2.92;;;;;;;;;;5012707;28;20041;-68
2021/04/28 06:58:11;;;;;;;8.88;3.58;;;;;;;;;;5009466;28;20070;-68
2021/04/28 07:00:37;;;;;;;54.85;8.32;;;;;;;;;;5010135;28;20136;-68
2021/04/28 07:03:03;;;;;;;27.90;4.93;;;;;;;;;;5014669;28;20488;-68
2021/04/28 07:05:30;;;;;;;10.77;3.63;;;;;;;;;;5014629;28;20041;-68
2021/04/28 07:07:56;;;;;;;6.53;3.20;;;;;;;;;;5015145;28;20092;-68
2021/04/28 07:10:22;;;;;;;5.93;3.40;;;;;;;;;;5009039;28;20065;-68
2021/04/28 07:12:49;;;;;;;5.78;3.90;;;;;;;;;;5011986;28;20468;-68
2021/04/28 07:15:15;;;;;;;5.63;3.08;;;;;;;;;;4990108;28;20081;-68
2021/04/28 07:17:44;;;;;;;11.15;3.78;;;;;;;;;;5000066;28;20052;-68
2021/04/28 07:20:10;;;;;;;6.20;3.15;;;;;;;;;;5012555;28;20049;-68
2021/04/28 07:22:36;;;;;;;10.07;3.78;;;;;;;;;;5011885;28;20414;-68
2021/04/28 07:25:03;;;;;;;6.82;3.83;;;;;;;;;;5008316;28;20042;-68
2021/04/28 07:27:29;;;;;;;4.97;3.65;;;;;;;;;;5008814;28;20424;-68
2021/04/28 07:29:56;;;;;;;8.35;3.50;;;;;;;;;;5002132;28;20069;-68
2021/04/28 07:32:22;;;;;;;7.03;3.97;;;;;;;;;;5018051;28;20050;-68
2021/04/28 07:34:48;;;;;;;6.95;4.07;;;;;;;;;;5009740;28;20116;-68
2021/04/28 07:37:14;;;;;;;5.35;3.70;;;;;;;;;;5010015;28;20046;-68
2021/04/28 07:39:41;;;;;;;9.07;4.45;;;;;;;;;;5013695;28;20041;-68
2021/04/28 07:42:07;;;;;;;7.82;3.67;;;;;;;;;;5012027;28;20033;-68
2021/04/28 07:44:33;;;;;;;6.75;3.97;;;;;;;;;;4996302;28;20045;-68
2021/04/28 07:47:00;;;;;;;5.03;3.92;;;;;;;;;;5010997;28;20075;-68
2021/04/28 07:49:26;;;;;;;6.85;3.58;;;;;;;;;;5015968;28;20116;-68
2021/04/28 07:51:53;;;;;;;6.45;3.53;;;;;;;;;;5013248;28;20041;-67
2021/04/28 07:54:20;;;;;;;6.40;3.70;;;;;;;;;;5014257;28;20060;-67
2021/04/28 07:56:46;;;;;;;7.85;4.07;;;;;;;;;;5012249;28;20046;-67
2021/04/28 07:59:14;;;;;;;9.45;3.95;;;;;;;;;;5011698;28;20074;-67
2021/04/28 08:01:40;;;;;;;;;;;;;;;;;;5009162;28;20050;-68
2021/04/28 08:04:06;;;;;;;;;;;;;;;;;;5016817;28;19940;-69
2021/04/28 08:06:32;;;;;;;6.30;4.20;;;;;;;;;;5005414;28;20055;-68
2021/04/28 08:08:59;;;;;;;7.05;4.00;;;;;;;;;;5001796;28;20093;-68
2021/04/28 08:11:26;;;;;;;6.00;4.43;;;;;;;;;;5002973;28;21437;-68
2021/04/28 08:13:52;;;;;;;6.85;3.83;;;;;;;;;;5009982;28;20042;-67
2021/04/28 08:16:19;;;;;;;7.57;4.00;;;;;;;;;;5009573;28;20049;-67
2021/04/28 08:18:46;;;;;;;6.18;3.97;;;;;;;;;;5016721;28;20049;-69
2021/04/28 08:21:12;;;;;;;6.97;3.95;;;;;;;;;;5016426;28;20081;-70
2021/04/28 08:23:42;;;;;;;6.28;3.70;;;;;;;;;;4996882;28;20042;-67
2021/04/28 08:26:09;;;;;;;6.85;4.03;;;;;;;;;;5008724;28;20417;-67
2021/04/28 08:28:39;;;;;;;6.93;4.20;;;;;;;;;;4996505;28;20034;-67
2021/04/28 08:31:06;;;;;;;31.10;7.32;;;;;;;;;;5010056;28;20048;-67
2021/04/28 08:33:32;;;;;;;25.10;5.85;;;;;;;;;;4992861;28;20111;-68
2021/04/28 08:35:58;;;;;;;8.20;4.53;;;;;;;;;;5005833;28;20061;-69
2021/04/28 08:38:25;;;;;;;8.10;4.28;;;;;;;;;;4998126;28;20840;-69
2021/04/28 08:40:51;;;;;;;7.43;4.47;;;;;;;;;;5000131;28;20049;-69
2021/04/28 08:43:17;;;;;;;5.88;4.30;;;;;;;;;;5004794;28;20510;-68
2021/04/28 08:45:43;;;;;;;10.57;4.80;;;;;;;;;;4984263;28;20057;-67
2021/04/28 08:48:09;;;;;;;8.45;3.83;;;;;;;;;;5001349;28;20503;-68
2021/04/28 08:50:36;;;;;;;7.55;4.43;;;;;;;;;;5003198;28;20159;-68
2021/04/28 08:53:02;;;;;;;10.27;4.72;;;;;;;;;;4997493;28;20357;-69
2021/04/28 08:55:28;;;;;;;11.52;4.15;;;;;;;;;;5005910;28;20044;-69
2021/04/28 08:57:55;;;;;;;5.63;3.90;;;;;;;;;;5008391;28;20045;-69
2021/04/28 09:00:21;;;;;;;8.30;4.78;;;;;;;;;;4995381;28;20038;-69
2021/04/28 09:02:57;;;;;;;10.18;4.78;;;;;;;;;;4997492;28;20040;-69
2021/04/28 09:05:23;;;;;;;8.10;4.63;;;;;;;;;;5000288;28;21097;-69
2021/04/28 09:07:50;;;;;;;7.45;4.53;;;;;;;;;;5000290;28;20046;-67
2021/04/28 09:10:18;;;;;;;10.98;4.68;;;;;;;;;;5007393;28;20034;-67
2021/04/28 09:12:54;;;;;;;11.13;4.65;;;;;;;;;;5014433;28;20050;-67
2021/04/28 09:15:35;;;;;;;10.07;4.82;;;;;;;;;;5007527;28;20322;-69
2021/04/28 09:18:02;;;;;;;8.57;4.63;;;;;;;;;;5015173;28;20461;-68
2021/04/28 09:20:32;;;;;;;10.77;4.90;;;;;;;;;;5006905;28;20392;-67
2021/04/28 09:23:02;;;;;;;9.05;5.07;;;;;;;;;;5003832;28;20077;-68
2021/04/28 09:25:39;;;;;;;10.70;5.10;;;;;;;;;;5013144;28;20046;-68
2021/04/28 09:28:26;;;;;;;9.85;4.50;;;;;;;;;;4995204;28;20077;-68
2021/04/28 09:31:10;;;;;;;5.70;4.72;;;;;;;;;;5005030;28;20489;-68
2021/04/28 09:33:42;;;;;;;8.30;4.88;;;;;;;;;;4988353;28;20089;-67
2021/04/28 09:36:09;;;;;;;9.98;4.95;;;;;;;;;;5008132;28;20472;-68
2021/04/28 09:38:50;;;;;;;8.18;5.43;;;;;;;;;;5005675;28;20545;-68
2021/04/28 09:41:33;;;;;;;7.80;5.18;;;;;;;;;;4990025;28;20176;-67
2021/04/28 09:43:59;;;;;;;7.25;4.70;;;;;;;;;;4987767;28;20038;-68
2021/04/28 09:46:25;;;;;;;12.32;5.70;;;;;;;;;;4987486;28;20138;-67
2021/04/28 09:49:06;;;;;;;17.58;6.07;;;;;;;;;;4986571;28;20042;-67
2021/04/28 09:51:33;;;;;;;9.18;5.30;;;;;;;;;;4988306;28;20315;-68
2021/04/28 09:54:09;;;;;;;8.38;4.85;;;;;;;;;;4987946;28;20046;-67
2021/04/28 09:56:39;;;;;;;9.32;4.45;;;;;;;;;;4991357;28;20121;-67
2021/04/28 09:59:05;;;;;;;12.50;5.05;;;;;;;;;;4991171;28;20496;-67
2021/04/28 10:01:31;;;;;;;8.75;5.32;;;;;;;;;;4995278;28;20681;-67
2021/04/28 10:03:58;;;;;;;11.13;5.15;;;;;;;;;;4993094;28;20038;-67
2021/04/28 10:06:40;;;;;;;7.43;4.82;;;;;;;;;;4992423;28;20049;-67
2021/04/28 10:09:08;;;;;;;9.25;5.25;;;;;;;;;;4978592;28;20133;-68
2021/04/28 10:11:34;;;;;;;9.90;5.25;;;;;;;;;;4982259;28;20353;-68
2021/04/28 10:14:00;;;;;;;7.72;4.95;;;;;;;;;;4982851;28;20409;-67
2021/04/28 10:16:27;;;;;;;9.35;5.10;;;;;;;;;;4981885;28;20413;-68
2021/04/28 10:18:53;;;;;;;9.05;4.85;;;;;;;;;;4981765;28;20050;-68
2021/04/28 10:21:20;;;;;;;9.57;5.30;;;;;;;;;;4981635;28;20445;-67
2021/04/28 10:23:46;;;;;;;8.55;4.75;;;;;;;;;;4995429;28;20042;-68
2021/04/28 10:26:13;;;;;;;8.25;4.93;;;;;;;;;;4982423;28;20058;-68
2021/04/28 10:28:40;;;;;;;9.73;5.63;;;;;;;;;;4992326;28;20034;-69
2021/04/28 10:31:06;;;;;;;8.70;5.30;;;;;;;;;;4994487;28;20034;-68
2021/04/28 10:33:35;;;;;;;7.25;4.85;;;;;;;;;;4969788;28;20055;-66
2021/04/28 10:36:04;;;;;;;11.93;5.15;;;;;;;;;;4977476;28;20085;-66
2021/04/28 10:38:31;;;;;;;9.75;4.97;;;;;;;;;;4979331;28;20038;-67
2021/04/28 10:40:57;;;;;;;11.75;5.47;;;;;;;;;;4979800;28;20070;-66
2021/04/28 10:43:34;;;;;;;8.60;5.10;;;;;;;;;;4976342;28;20126;-67
2021/04/28 10:46:16;;;;;;;9.60;5.55;;;;;;;;;;4963955;28;20092;-67
2021/04/28 10:48:42;;;;;;;12.23;5.20;;;;;;;;;;4972376;28;20397;-67
2021/04/28 10:51:09;;;;;;;7.85;5.18;;;;;;;;;;4971358;28;20042;-67
2021/04/28 10:53:35;;;;;;;8.88;5.20;;;;;;;;;;4963803;28;20050;-67
2021/04/28 10:56:13;;;;;;;9.70;4.70;;;;;;;;;;4964262;28;20038;-67
2021/04/28 10:58:40;;;;;;;13.45;5.43;;;;;;;;;;4972288;28;20047;-67
2021/04/28 11:01:07;;;;;;;16.25;5.95;;;;;;;;;;4966688;28;20085;-66
2021/04/28 11:03:52;;;;;;;9.00;5.10;;;;;;;;;;4971697;28;20078;-66
2021/04/28 11:06:19;;;;;;;11.35;5.30;;;;;;;;;;4974024;28;20046;-68
2021/04/28 11:08:45;;;;;;;8.25;5.10;;;;;;;;;;4971312;28;20039;-67
2021/04/28 11:11:38;;;;;;;7.18;5.55;;;;;;;;;;4969516;28;20382;-67
2021/04/28 11:14:10;;;;;;;7.63;4.68;;;;;;;;;;4971325;28;20978;-66
2021/04/28 11:16:39;;;;;;;8.13;5.13;;;;;;;;;;4970313;28;20041;-67
2021/04/28 11:19:25;;;;;;;10.48;5.53;;;;;;;;;;4973531;28;20078;-68
2021/04/28 11:22:05;;;;;;;6.05;5.15;;;;;;;;;;4972496;28;20050;-66
2021/04/28 11:24:50;;;;;;;6.57;4.88;;;;;;;;;;4973609;28;20035;-66
2021/04/28 11:27:35;;;;;;;6.97;4.97;;;;;;;;;;4971767;28;20045;-66
2021/04/28 11:30:01;;;;;;;13.02;5.68;;;;;;;;;;4969211;28;20082;-66
2021/04/28 11:32:30;;;;;;;7.35;5.40;;;;;;;;;;4990355;28;20364;-65
2021/04/28 11:34:56;;;;;;;11.90;6.13;;;;;;;;;;5011624;28;20469;-65
2021/04/28 11:37:22;;;;;;;7.53;5.55;;;;;;;;;;5011156;28;20045;-65
2021/04/28 11:39:49;;;;;;;19.02;5.93;;;;;;;;;;5011223;28;20137;-65
2021/04/28 11:42:16;;;;;;;10.80;5.18;;;;;;;;;;5007651;28;20100;-65
2021/04/28 11:44:45;;;;;;;6.05;5.20;;;;;;;;;;5011819;28;20038;-65
2021/04/28 11:47:13;;;;;;;14.60;6.35;;;;;;;;;;5009556;28;20048;-66
2021/04/28 11:49:40;;;;;;;6.95;5.63;;;;;;;;;;5008581;28;20068;-66
2021/04/28 11:52:06;;;;;;;7.95;5.88;;;;;;;;;;4990365;28;20555;-69
2021/04/28 11:54:34;;;;;;;8.05;5.78;;;;;;;;;;5004925;28;20129;-69
2021/04/28 11:57:00;;;;;;;23.90;6.65;;;;;;;;;;4994498;28;20050;-69
2021/04/28 11:59:27;;;;;;;11.70;6.40;;;;;;;;;;5006996;28;20128;-68
2021/04/28 12:01:57;;;;;;;20.05;6.32;;;;;;;;;;5009287;28;20057;-69
2021/04/28 12:04:36;;;;;;;6.40;5.60;;;;;;;;;;5008096;28;20532;-69
2021/04/28 12:07:06;;;;;;;9.23;5.60;;;;;;;;;;5009999;28;20049;-69
2021/04/28 12:09:39;;;;;;;8.18;5.70;;;;;;;;;;5007798;28;20046;-69
2021/04/28 12:12:11;;;;;;;9.77;5.65;;;;;;;;;;5007641;28;20100;-69
2021/04/28 12:14:39;;;;;;;8.27;5.70;;;;;;;;;;5007440;28;20054;-69
2021/04/28 12:17:05;;;;;;;6.82;5.50;;;;;;;;;;5007892;28;20034;-69
2021/04/28 12:19:31;;;;;;;9.63;6.50;;;;;;;;;;5008355;28;20080;-67
2021/04/28 12:22:06;;;;;;;10.68;6.35;;;;;;;;;;5010308;28;20038;-68
2021/04/28 12:24:35;;;;;;;12.98;6.25;;;;;;;;;;5010432;28;20065;-69
2021/04/28 12:27:06;;;;;;;22.67;6.32;;;;;;;;;;5010568;28;20080;-68
2021/04/28 12:29:32;;;;;;;14.18;6.63;;;;;;;;;;5010400;28;20042;-67
2021/04/28 12:31:59;;;;;;;10.23;6.22;;;;;;;;;;5010605;28;20054;-67
2021/04/28 12:34:26;;;;;;;11.98;6.38;;;;;;;;;;5003345;28;20038;-67
2021/04/28 12:36:52;;;;;;;18.70;6.30;;;;;;;;;;4976466;28;20049;-67
2021/04/28 12:39:25;;;;;;;11.40;6.22;;;;;;;;;;5010913;28;20038;-67
2021/04/28 12:41:52;;;;;;;12.45;6.18;;;;;;;;;;5017798;28;20044;-67
2021/04/28 12:44:18;;;;;;;8.23;6.38;;;;;;;;;;5014558;28;20044;-67
2021/04/28 12:46:45;;;;;;;11.88;6.60;;;;;;;;;;4992431;28;20061;-67
2021/04/28 12:49:11;;;;;;;8.10;6.53;;;;;;;;;;5009917;28;20080;-68
2021/04/28 12:51:50;;;;;;;12.48;6.30;;;;;;;;;;5010224;28;20038;-68
2021/04/28 12:54:33;;;;;;;17.92;7.55;;;;;;;;;;5011383;28;20038;-68
2021/04/28 12:57:02;;;;;;;10.85;5.93;;;;;;;;;;5010515;28;20036;-68
2021/04/28 12:59:29;;;;;;;15.98;6.18;;;;;;;;;;5009407;28;20049;-68
2021/04/28 13:02:02;;;;;;;11.85;5.90;;;;;;;;;;4994221;28;20109;-67
2021/04/28 13:04:29;;;;;;;15.27;6.97;;;;;;;;;;5009428;28;20054;-68
2021/04/28 13:07:10;;;;;;;10.75;6.75;;;;;;;;;;5007619;28;20452;-68
2021/04/28 13:09:37;;;;;;;12.38;6.63;;;;;;;;;;5009043;28;20042;-68
2021/04/28 13:12:03;;;;;;;9.52;6.80;;;;;;;;;;4992054;28;20113;-68
2021/04/28 13:14:56;;;;;;;18.85;7.30;;;;;;;;;;5009601;28;20042;-68
2021/04/28 13:17:22;;;;;;;9.20;6.72;;;;;;;;;;5005602;28;20493;-68
2021/04/28 13:19:48;;;;;;;12.23;6.72;;;;;;;;;;5008841;28;20038;-68
2021/04/28 13:22:18;;;;;;;14.15;7.38;;;;;;;;;;5007902;28;20052;-67
2021/04/28 13:24:51;;;;;;;10.38;7.13;;;;;;;;;;5008891;28;20054;-68
2021/04/28 13:27:24;;;;;;;10.68;7.05;;;;;;;;;;5008583;28;20499;-67
2021/04/28 13:29:52;;;;;;;11.38;7.15;;;;;;;;;;5006227;28;20069;-67
2021/04/28 13:32:35;;;;;;;17.98;8.68;;;;;;;;;;5012201;28;20404;-67
2021/04/28 13:35:21;;;;;;;11.95;7.00;;;;;;;;;;4992081;28;20121;-67
2021/04/28 13:37:53;;;;;;;13.98;7.72;;;;;;;;;;5011838;28;20057;-68
2021/04/28 13:40:24;;;;;;;12.93;7.30;;;;;;;;;;5012874;28;20053;-67
2021/04/28 13:42:51;;;;;;;11.70;7.78;;;;;;;;;;5012204;28;20046;-68
2021/04/28 13:45:17;;;;;;;10.88;7.28;;;;;;;;;;5012867;28;20128;-68
2021/04/28 13:47:43;;;;;;;14.02;7.22;;;;;;;;;;5013011;28;20042;-67
2021/04/28 13:50:11;;;;;;;12.40;7.45;;;;;;;;;;4979829;28;20420;-67
2021/04/28 13:52:38;;;;;;;12.77;7.57;;;;;;;;;;5014110;28;20049;-67
2021/04/28 13:55:04;;;;;;;12.85;7.57;;;;;;;;;;5013215;28;20133;-68
2021/04/28 13:57:31;;;;;;;10.45;7.28;;;;;;;;;;4995351;28;20060;-68
2021/04/28 13:59:57;;;;;;;11.10;7.60;;;;;;;;;;5011528;28;20038;-68
2021/04/28 14:02:23;;;;;;;10.77;7.60;;;;;;;;;;4994185;28;20507;-67
2021/04/28 14:04:49;;;;;;;9.00;7.60;;;;;;;;;;4997284;28;20052;-68
2021/04/28 14:07:15;;;;;;;15.80;7.43;;;;;;;;;;5011345;28;20050;-68
2021/04/28 14:09:42;;;;;;;10.85;7.53;;;;;;;;;;5011810;28;20100;-68
2021/04/28 14:12:08;;;;;;;11.48;7.85;;;;;;;;;;5009859;28;20034;-67
2021/04/28 14:14:34;;;;;;;9.55;7.25;;;;;;;;;;5012113;28;20038;-67
2021/04/28 14:17:00;;;;;;;9.95;7.63;;;;;;;;;;4993627;28;20041;-67
2021/04/28 14:19:28;;;;;;;10.77;7.95;;;;;;;;;;5011943;28;20500;-67
2021/04/28 14:21:54;;;;;;;15.70;7.85;;;;;;;;;;5010892;28;20076;-67
2021/04/28 14:24:21;;;;;;;12.73;8.10;;;;;;;;;;5011903;28;20510;-67
2021/04/28 14:26:47;;;;;;;9.38;7.43;;;;;;;;;;5009258;28;20046;-67
2021/04/28 14:29:13;;;;;;;11.80;7.50;;;;;;;;;;5011583;28;20045;-67
2021/04/28 14:31:39;;;;;;;13.68;8.02;;;;;;;;;;5011173;28;20409;-67
2021/04/28 14:34:06;;;;;;;18.50;8.40;;;;;;;;;;5009865;28;20038;-67
2021/04/28 14:36:34;;;;;;;10.48;7.68;;;;;;;;;;5013385;28;20045;-67
2021/04/28 14:39:00;;;;;;;11.23;7.53;;;;;;;;;;5012034;28;20048;-67
2021/04/28 14:41:27;;;;;;;17.67;7.95;;;;;;;;;;4993505;28;20053;-67
2021/04/28 14:43:53;;;;;;;15.45;7.47;;;;;;;;;;5012549;28;20038;-68
2021/04/28 14:46:19;;;;;;;11.30;7.30;;;;;;;;;;5010108;28;20038;-67